Time;durP1;ratioP1;P1;durP2;ratioP2;P2;SDS_P1;SDS_P2;PMS_P1;PMS_P2;Temp;Humidity;BMP_temperature;BMP_pressure;BME280_temperature;BME280_humidity;BME280_pressure;Samples;Min_cycle;Max_cycle;Signal;HPM_P1;HPM_P2
2022/10/31 00:00:18;;;;;;;;;;;;;;;;;;4936594;29;7162;-84
2022/10/31 00:02:43;;;;;;;;;;;;;;;;;;4936108;29;8753;-87
2022/10/31 00:05:09;;;;;;;;;;;;;;;;;;4936273;29;7115;-85
2022/10/31 00:07:35;;;;;;;;;;;;;;;;;;4936191;29;6844;-87
2022/10/31 00:10:00;;;;;;;;;;;;;;;;;;4936677;29;8355;-87
2022/10/31 00:12:26;;;;;;;;;;;;;;;;;;4937253;29;7160;-87
2022/10/31 00:14:51;;;;;;;;;;;;;;;;;;4939740;29;8406;-87
2022/10/31 00:17:17;;;;;;;;;;;;;;;;;;4940224;29;8342;-87
2022/10/31 00:19:42;;;;;;;;;;;;;;;;;;4940242;29;8363;-85
2022/10/31 00:22:08;;;;;;;;;;;;;;;;;;4940345;29;6995;-86
2022/10/31 00:24:34;;;;;;;;;;;;;;;;;;4939821;29;8774;-86
2022/10/31 00:26:59;;;;;;;;;;;;;;;;;;4939788;29;7373;-87
2022/10/31 00:29:25;;;;;;;;;;;;;;;;;;4940008;29;7045;-86
2022/10/31 00:31:52;;;;;;;;;;;;;;;;;;4939285;29;8487;-86
2022/10/31 00:34:17;;;;;;;;;;;;;;;;;;4940121;29;7221;-86
2022/10/31 00:36:42;;;;;;;;;;;;;;;;;;4939683;29;8548;-86
2022/10/31 00:39:08;;;;;;;;;;;;;;;;;;4939679;29;8409;-85
2022/10/31 00:41:33;;;;;;;;;;;;;;;;;;4939600;29;8828;-86
2022/10/31 00:43:59;;;;;;;;;;;;;;;;;;4939775;29;7059;-86
2022/10/31 00:46:24;;;;;;;;;;;;;;;;;;4939501;29;8397;-83
2022/10/31 00:48:50;;;;;;;;;;;;;;;;;;4940438;29;6996;-83
2022/10/31 00:51:15;;;;;;;;;;;;;;;;;;4938936;29;7147;-84
2022/10/31 00:53:41;;;;;;;;;;;;;;;;;;4939389;29;7050;-84
2022/10/31 00:56:07;;;;;;;;;;;;;;;;;;4939832;29;6897;-84
2022/10/31 00:58:32;;;;;;;;;;;;;;;;;;4938830;29;7397;-83
2022/10/31 01:00:57;;;;;;;;;;;;;;;;;;4939550;29;6997;-86
2022/10/31 01:03:25;;;;;;;;;;;;;;;;;;4939955;29;7231;-86
2022/10/31 01:05:56;;;;;;;;;;;;;;;;;;4939227;29;8955;-86
2022/10/31 01:08:22;;;;;;;;;;;;;;;;;;4955404;28;7071;-85
2022/10/31 01:10:57;;;;;;;;;;;;;;;;;;4938614;29;7055;-87
2022/10/31 01:13:23;;;;;;;;;;;;;;;;;;4939144;29;8717;-86
2022/10/31 01:15:53;;;;;;;;;;;;;;;;;;4938626;29;7028;-86
2022/10/31 01:18:19;;;;;;;;;;;;;;;;;;4939664;29;7265;-86
2022/10/31 01:20:45;;;;;;;;;;;;;;;;;;4938928;29;7007;-86
2022/10/31 01:23:10;;;;;;;;;;;;;;;;;;4938447;29;7268;-86
2022/10/31 01:25:36;;;;;;;;;;;;;;;;;;4937734;29;8450;-85
2022/10/31 01:28:01;;;;;;;;;;;;;;;;;;4938532;29;7249;-86
2022/10/31 01:30:26;;;;;;;;;;;;;;;;;;4938625;29;7142;-84
2022/10/31 01:32:52;;;;;;;;;;;;;;;;;;4938712;29;8744;-85
2022/10/31 01:35:17;;;;;;;;;;;;;;;;;;4938411;29;7126;-86
2022/10/31 01:37:43;;;;;;;;;;;;;;;;;;4938591;29;8336;-85
2022/10/31 01:40:09;;;;;;;;;;;;;;;;;;4938211;29;7116;-87
2022/10/31 01:42:34;;;;;;;;;;;;;;;;;;4938425;29;7023;-86
2022/10/31 01:45:01;;;;;;;;;;;;;;;;;;4939400;29;7242;-86
2022/10/31 01:47:45;;;;;;;;;;;;;;;;;;4938447;29;7189;-85
2022/10/31 01:50:15;;;;;;;;;;;;;;;;;;4938037;29;6856;-86
2022/10/31 01:52:50;;;;;;;;;;;;;;;;;;4938380;29;7936;-87
2022/10/31 01:55:21;;;;;;;;;;;;;;;;;;5154242;23;7231;-86
2022/10/31 01:57:50;;;;;;;;;;;;;;;;;;4977565;28;7103;-86
2022/10/31 02:00:15;;;;;;;;;;;;;;;;;;4976347;28;7061;-85
2022/10/31 02:02:42;;;;;;;;;;;;;;;;;;4976464;28;7936;-86
2022/10/31 02:05:10;;;;;;;;;;;;;;;;;;4976616;28;7067;-86
2022/10/31 02:07:39;;;;;;;;;;;;;;;;;;4976558;28;8384;-86
2022/10/31 02:10:08;;;;;;;;;;;;;;;;;;4976257;28;7179;-86
2022/10/31 02:12:36;;;;;;;;;;;;;;;;;;4975942;28;8308;-86
2022/10/31 02:15:02;;;;;;;;;;;;;;;;;;4975645;28;6924;-85
2022/10/31 02:17:29;;;;;;;;;;;;;;;;;;4975783;28;8444;-85
2022/10/31 02:20:14;;;;;;;;;;;;;;;;;;4975853;28;7144;-85
2022/10/31 02:22:58;;;;;;;;;;;;;;;;;;4974996;28;7389;-85
2022/10/31 02:25:26;;;;;;;;;;;;;;;;;;4975718;28;8421;-86
2022/10/31 02:28:12;;;;;;;;;;;;;;;;;;4976138;28;8481;-85
2022/10/31 02:31:06;;;;;;;;;;;;;;;;;;4975650;28;8453;-85
2022/10/31 02:33:40;;;;;;;;;;;;;;;;;;4976182;28;8641;-85
2022/10/31 02:36:32;;;;;;;;;;;;;;;;;;4975839;28;8315;-86
2022/10/31 02:39:22;;;;;;;;;;;;;;;;;;4953643;28;8664;-86
2022/10/31 02:42:06;;;;;;;;;;;;;;;;;;4976276;28;7238;-85
2022/10/31 02:44:56;;;;;;;;;;;;;;;;;;4976009;28;8540;-85
2022/10/31 02:47:30;;;;;;;;;;;;;;;;;;4975826;28;8321;-85
2022/10/31 02:49:55;;;;;;;;;;;;;;;;;;4975903;28;7111;-85
2022/10/31 02:52:23;;;;;;;;;;;;;;;;;;4975652;28;7237;-86
2022/10/31 02:54:49;;;;;;;;;;;;;;;;;;4975567;28;7056;-86
2022/10/31 02:57:18;;;;;;;;;;;;;;;;;;4975300;28;7034;-85
2022/10/31 02:59:50;;;;;;;;;;;;;;;;;;4975240;28;7393;-86
2022/10/31 03:02:22;;;;;;;;;;;;;;;;;;4975565;28;7164;-85
2022/10/31 03:04:47;;;;;;;;;;;;;;;;;;4975482;28;8419;-86
2022/10/31 03:07:13;;;;;;;;;;;;;;;;;;4975157;28;8472;-86
2022/10/31 03:09:38;;;;;;;;;;;;;;;;;;4975133;28;7041;-86
2022/10/31 03:12:03;;;;;;;;;;;;;;;;;;4975124;28;8552;-85
2022/10/31 03:14:41;;;;;;;;;;;;;;;;;;4977451;28;6813;-85
2022/10/31 03:17:10;;;;;;;;;;;;;;;;;;4975926;28;7025;-85
2022/10/31 03:19:40;;;;;;;;;;;;;;;;;;4975881;28;7172;-85
2022/10/31 03:22:09;;;;;;;;;;;;;;;;;;4975331;28;8430;-85
2022/10/31 03:24:38;;;;;;;;;;;;;;;;;;4975486;28;8343;-85
2022/10/31 03:27:07;;;;;;;;;;;;;;;;;;4975411;28;7244;-85
2022/10/31 03:29:36;;;;;;;;;;;;;;;;;;4975665;28;7249;-85
2022/10/31 03:32:07;;;;;;;;;;;;;;;;;;4974726;28;8701;-85
2022/10/31 03:34:36;;;;;;;;;;;;;;;;;;4974952;28;7061;-85
2022/10/31 03:37:05;;;;;;;;;;;;;;;;;;4974723;28;8318;-85
2022/10/31 03:39:34;;;;;;;;;;;;;;;;;;4975142;28;7050;-85
2022/10/31 03:42:09;;;;;;;;;;;;;;;;;;4974932;28;8384;-86
2022/10/31 03:44:37;;;;;;;;;;;;;;;;;;4975455;28;7239;-86
2022/10/31 03:47:04;;;;;;;;;;;;;;;;;;4975290;28;7037;-86
2022/10/31 03:49:34;;;;;;;;;;;;;;;;;;4978953;28;8936;-86
2022/10/31 03:52:22;;;;;;;;;;;;;;;;;;4979443;28;8511;-86
2022/10/31 03:55:00;;;;;;;;;;;;;;;;;;4978160;28;7269;-86
2022/10/31 03:57:31;;;;;;;;;;;;;;;;;;4978815;28;8688;-86
2022/10/31 04:00:03;;;;;;;;;;;;;;;;;;4978833;28;8634;-85
2022/10/31 04:02:32;;;;;;;;;;;;;;;;;;4978485;28;8425;-87
2022/10/31 04:04:59;;;;;;;;;;;;;;;;;;4979453;28;6832;-86
2022/10/31 04:07:28;;;;;;;;;;;;;;;;;;4981991;28;8435;-86
2022/10/31 04:09:53;;;;;;;;;;;;;;;;;;4997815;28;8462;-87
2022/10/31 04:12:21;;;;;;;;;;;;;;;;;;4978681;28;7115;-86
2022/10/31 04:14:50;;;;;;;;;;;;;;;;;;4978086;28;7251;-85
2022/10/31 04:17:18;;;;;;;;;;;;;;;;;;4977855;28;6953;-86
2022/10/31 04:19:44;;;;;;;;;;;;;;;;;;4978036;28;7062;-86
2022/10/31 04:22:09;;;;;;;;;;;;;;;;;;4977868;28;7032;-86
2022/10/31 04:24:39;;;;;;;;;;;;;;;;;;4977953;28;7188;-86
2022/10/31 04:27:04;;;;;;;;;;;;;;;;;;4978563;28;7070;-86
2022/10/31 04:29:30;;;;;;;;;;;;;;;;;;4978276;28;7281;-86
2022/10/31 04:31:56;;;;;;;;;;;;;;;;;;4978384;28;6999;-85
2022/10/31 04:34:21;;;;;;;;;;;;;;;;;;4978065;28;7038;-87
2022/10/31 04:36:47;;;;;;;;;;;;;;;;;;4978339;28;7017;-86
2022/10/31 04:39:12;;;;;;;;;;;;;;;;;;4978017;28;7946;-87
2022/10/31 04:41:38;;;;;;;;;;;;;;;;;;4977914;28;9115;-86
2022/10/31 04:44:03;;;;;;;;;;;;;;;;;;4977912;28;6835;-86
2022/10/31 04:46:29;;;;;;;;;;;;;;;;;;4977875;28;7180;-87
2022/10/31 04:48:55;;;;;;;;;;;;;;;;;;4978165;28;7168;-86
2022/10/31 04:51:21;;;;;;;;;;;;;;;;;;4977501;28;8308;-86
2022/10/31 04:53:46;;;;;;;;;;;;;;;;;;4978627;28;7015;-86
2022/10/31 04:56:12;;;;;;;;;;;;;;;;;;4977585;28;8514;-86
2022/10/31 04:58:37;;;;;;;;;;;;;;;;;;4978128;28;7393;-87
2022/10/31 05:01:03;;;;;;;;;;;;;;;;;;4977351;28;7218;-86
2022/10/31 05:03:28;;;;;;;;;;;;;;;;;;4977310;28;8456;-86
2022/10/31 05:05:54;;;;;;;;;;;;;;;;;;4977129;28;8351;-86
2022/10/31 05:08:19;;;;;;;;;;;;;;;;;;4977003;28;6979;-86
2022/10/31 05:10:44;;;;;;;;;;;;;;;;;;4977269;28;7071;-86
2022/10/31 05:13:10;;;;;;;;;;;;;;;;;;4977436;28;7202;-86
2022/10/31 05:15:36;;;;;;;;;;;;;;;;;;4977608;28;8280;-86
2022/10/31 05:18:01;;;;;;;;;;;;;;;;;;4977003;28;7130;-86
2022/10/31 05:20:29;;;;;;;;;;;;;;;;;;4977378;28;8386;-87
2022/10/31 05:22:56;;;;;;;;;;;;;;;;;;4977353;28;7159;-86
2022/10/31 05:25:23;;;;;;;;;;;;;;;;;;4977125;28;8438;-85
2022/10/31 05:27:50;;;;;;;;;;;;;;;;;;4977017;28;8281;-86
2022/10/31 05:30:17;;;;;;;;;;;;;;;;;;4977051;28;7137;-87
2022/10/31 05:32:44;;;;;;;;;;;;;;;;;;4977249;28;7028;-85
2022/10/31 05:35:12;;;;;;;;;;;;;;;;;;4976673;28;8389;-87
2022/10/31 05:37:38;;;;;;;;;;;;;;;;;;4976665;28;8889;-86
2022/10/31 05:40:06;;;;;;;;;;;;;;;;;;4971598;28;7348;-86
2022/10/31 05:42:31;;;;;;;;;;;;;;;;;;4976488;28;7123;-86
2022/10/31 05:44:57;;;;;;;;;;;;;;;;;;4976432;28;8476;-87
2022/10/31 05:47:22;;;;;;;;;;;;;;;;;;4976440;28;8624;-86
2022/10/31 05:49:48;;;;;;;;;;;;;;;;;;4975919;28;8288;-86
2022/10/31 05:52:14;;;;;;;;;;;;;;;;;;4976333;28;8389;-86
2022/10/31 05:54:39;;;;;;;;;;;;;;;;;;4975903;28;7987;-86
2022/10/31 05:57:05;;;;;;;;;;;;;;;;;;4976287;28;7028;-86
2022/10/31 05:59:31;;;;;;;;;;;;;;;;;;4975913;28;7082;-87
2022/10/31 06:01:56;;;;;;;;;;;;;;;;;;4976325;28;8427;-86
2022/10/31 06:04:22;;;;;;;;;;;;;;;;;;4975839;28;8323;-85
2022/10/31 06:06:47;;;;;;;;;;;;;;;;;;4976106;28;8323;-86
2022/10/31 06:09:12;;;;;;;;;;;;;;;;;;4976205;28;8608;-86
2022/10/31 06:11:38;;;;;;;;;;;;;;;;;;4975380;28;8403;-86
2022/10/31 06:14:05;;;;;;;;;;;;;;;;;;4973508;28;8482;-86
2022/10/31 06:16:30;;;;;;;;;;;;;;;;;;4975721;28;8374;-87
2022/10/31 06:18:56;;;;;;;;;;;;;;;;;;4975309;28;8563;-86
2022/10/31 06:21:21;;;;;;;;;;;;;;;;;;4975062;28;8346;-85
2022/10/31 06:23:46;;;;;;;;;;;;;;;;;;4975245;28;7413;-86
2022/10/31 06:26:12;;;;;;;;;;;;;;;;;;4975283;28;7049;-86
2022/10/31 06:28:37;;;;;;;;;;;;;;;;;;4975466;28;8330;-86
2022/10/31 06:31:03;;;;;;;;;;;;;;;;;;4975562;28;8412;-86
2022/10/31 06:33:28;;;;;;;;;;;;;;;;;;4975511;28;8314;-86
2022/10/31 06:35:54;;;;;;;;;;;;;;;;;;4975644;28;7018;-87
2022/10/31 06:38:19;;;;;;;;;;;;;;;;;;4975181;28;8706;-86
2022/10/31 06:40:45;;;;;;;;;;;;;;;;;;4975733;28;8556;-86
2022/10/31 06:43:11;;;;;;;;;;;;;;;;;;4975438;28;8692;-86
2022/10/31 06:45:37;;;;;;;;;;;;;;;;;;4976301;28;7014;-86
2022/10/31 06:48:03;;;;;;;;;;;;;;;;;;4975410;28;7460;-86
2022/10/31 06:50:28;;;;;;;;;;;;;;;;;;4975785;28;7998;-86
2022/10/31 06:52:56;;;;;;;;;;;;;;;;;;4975317;28;7038;-86
2022/10/31 06:55:22;;;;;;;;;;;;;;;;;;4975750;28;7270;-86
2022/10/31 06:57:55;;;;;;;;;;;;;;;;;;4975819;28;7021;-85
2022/10/31 07:00:21;;;;;;;;;;;;;;;;;;4975366;28;8401;-87
2022/10/31 07:02:54;;;;;;;;;;;;;;;;;;4971335;28;8926;-87
2022/10/31 07:05:20;;;;;;;;;;;;;;;;;;4975728;28;7379;-87
2022/10/31 07:07:45;;;;;;;;;;;;;;;;;;4975489;28;8289;-87
2022/10/31 07:10:11;;;;;;;;;;;;;;;;;;4975027;28;8812;-87
2022/10/31 07:12:36;;;;;;;;;;;;;;;;;;4970324;28;7207;-80
2022/10/31 07:15:02;;;;;;;;;;;;;;;;;;4972210;28;8414;-86
2022/10/31 07:17:27;;;;;;;;;;;;;;;;;;4971887;28;7010;-85
2022/10/31 07:19:53;;;;;;;;;;;;;;;;;;4971609;28;9411;-86
2022/10/31 07:22:18;;;;;;;;;;;;;;;;;;4971737;28;8445;-86
2022/10/31 07:24:44;;;;;;;;;;;;;;;;;;4971398;28;8558;-86
2022/10/31 07:27:09;;;;;;;;;;;;;;;;;;4980433;28;7385;-86
2022/10/31 07:29:34;;;;;;;;;;;;;;;;;;4971105;28;8778;-88
2022/10/31 07:32:00;;;;;;;;;;;;;;;;;;4971887;28;8488;-86
2022/10/31 07:34:25;;;;;;;;;;;;;;;;;;4971837;28;8317;-86
2022/10/31 07:36:51;;;;;;;;;;;;;;;;;;4971837;28;8387;-86
2022/10/31 07:39:17;;;;;;;;;;;;;;;;;;4980476;28;7179;-85
2022/10/31 07:41:42;;;;;;;;;;;;;;;;;;4982479;28;8420;-87
2022/10/31 07:44:08;;;;;;;;;;;;;;;;;;4976644;28;7175;-86
2022/10/31 07:46:33;;;;;;;;;;;;;;;;;;4966584;28;8621;-86
2022/10/31 07:48:59;;;;;;;;;;;;;;;;;;4972055;28;8421;-85
2022/10/31 07:51:24;;;;;;;;;;;;;;;;;;4972246;28;7031;-86
2022/10/31 07:53:50;;;;;;;;;;;;;;;;;;4972417;28;7115;-86
2022/10/31 07:56:15;;;;;;;;;;;;;;;;;;4972188;28;7131;-85
2022/10/31 07:58:41;;;;;;;;;;;;;;;;;;4972179;28;7170;-87
2022/10/31 08:01:06;;;;;;;;;;;;;;;;;;4972260;28;8568;-87
2022/10/31 08:03:32;;;;;;;;;;;;;;;;;;4972357;28;7013;-87
2022/10/31 08:05:57;;;;;;;;;;;;;;;;;;4972199;28;7970;-87
2022/10/31 08:08:23;;;;;;;;;;;;;;;;;;4972218;28;8412;-87
2022/10/31 08:10:49;;;;;;;;;;;;;;;;;;4971553;28;7257;-86
2022/10/31 08:13:15;;;;;;;;;;;;;;;;;;4972593;28;8542;-86
2022/10/31 08:15:41;;;;;;;;;;;;;;;;;;4972635;28;8571;-86
2022/10/31 08:18:11;;;;;;;;;;;;;;;;;;4972088;28;7151;-86
2022/10/31 08:20:37;;;;;;;;;;;;;;;;;;4972186;28;8333;-86
2022/10/31 08:23:04;;;;;;;;;;;;;;;;;;4972400;28;8315;-86
2022/10/31 08:25:31;;;;;;;;;;;;;;;;;;4971160;28;7339;-87
2022/10/31 08:27:57;;;;;;;;;;;;;;;;;;4981477;28;8457;-86
2022/10/31 08:30:25;;;;;;;;;;;;;;;;;;4979336;28;7032;-88
2022/10/31 08:33:03;;;;;;;;;;;;;;;;;;4981736;28;7037;-87
2022/10/31 08:35:29;;;;;;;;;;;;;;;;;;4992507;28;7060;-87
2022/10/31 08:37:56;;;;;;;;;;;;;;;;;;4986489;28;7424;-86
2022/10/31 08:40:22;;;;;;;;;;;;;;;;;;4994870;28;7093;-87
2022/10/31 08:42:48;;;;;;;;;;;;;;;;;;4995090;28;7024;-87
2022/10/31 08:45:13;;;;;;;;;;;;;;;;;;4994290;28;8309;-86
2022/10/31 08:47:38;;;;;;;;;;;;;;;;;;4994404;28;8270;-87
2022/10/31 08:50:04;;;;;;;;;;;;;;;;;;4993698;28;8694;-87
2022/10/31 08:52:30;;;;;;;;;;;;;;;;;;4994194;28;8391;-87
2022/10/31 08:54:55;;;;;;;;;;;;;;;;;;4990832;28;8480;-87
2022/10/31 08:57:21;;;;;;;;;;;;;;;;;;4975197;28;8501;-87
2022/10/31 08:59:46;;;;;;;;;;;;;;;;;;4973670;28;8416;-87
2022/10/31 09:02:12;;;;;;;;;;;;;;;;;;4973779;28;7348;-86
2022/10/31 09:04:37;;;;;;;;;;;;;;;;;;4974517;28;8690;-87
2022/10/31 09:07:02;;;;;;;;;;;;;;;;;;4974312;28;8755;-87
2022/10/31 09:09:28;;;;;;;;;;;;;;;;;;4972662;28;8410;-87
2022/10/31 09:11:53;;;;;;;;;;;;;;;;;;4972955;28;8501;-86
2022/10/31 09:14:19;;;;;;;;;;;;;;;;;;4975578;28;8700;-86
2022/10/31 09:16:45;;;;;;;;;;;;;;;;;;4977555;28;7089;-86
2022/10/31 09:19:10;;;;;;;;;;;;;;;;;;4977917;28;6853;-86
2022/10/31 09:21:36;;;;;;;;;;;;;;;;;;4976663;28;7086;-86
2022/10/31 09:24:01;;;;;;;;;;;;;;;;;;4974728;28;7040;-85
2022/10/31 09:26:27;;;;;;;;;;;;;;;;;;4974907;28;8908;-86
2022/10/31 09:28:52;;;;;;;;;;;;;;;;;;4974334;28;8306;-86
2022/10/31 09:31:18;;;;;;;;;;;;;;;;;;4973913;28;9128;-85
2022/10/31 09:33:43;;;;;;;;;;;;;;;;;;4973892;28;7335;-87
2022/10/31 09:36:09;;;;;;;;;;;;;;;;;;4974511;28;8840;-86
2022/10/31 09:38:34;;;;;;;;;;;;;;;;;;4991198;28;7049;-86
2022/10/31 09:41:16;;;;;;;;;;;;;;;;;;4993456;28;7263;-86
2022/10/31 09:43:57;;;;;;;;;;;;;;;;;;4995421;28;7297;-88
2022/10/31 09:46:35;;;;;;;;;;;;;;;;;;4976080;28;7191;-88
2022/10/31 09:49:19;;;;;;;;;;;;;;;;;;4975769;28;7101;-88
2022/10/31 09:51:55;;;;;;;;;;;;;;;;;;4975403;28;8462;-87
2022/10/31 09:54:39;;;;;;;;;;;;;;;;;;4975680;28;8750;-87
2022/10/31 09:57:09;;;;;;;;;;;;;;;;;;4974503;28;7193;-88
2022/10/31 09:59:37;;;;;;;;;;;;;;;;;;4974557;28;7704;-86
2022/10/31 10:02:03;;;;;;;;;;;;;;;;;;4974932;28;7456;-86
2022/10/31 10:04:40;;;;;;;;;;;;;;;;;;4991111;28;7362;-87
2022/10/31 10:07:13;;;;;;;;;;;;;;;;;;4975550;28;7291;-86
2022/10/31 10:09:39;;;;;;;;;;;;;;;;;;4974625;28;8462;-85
2022/10/31 10:12:16;;;;;;;;;;;;;;;;;;4974741;28;7323;-87
2022/10/31 10:15:01;;;;;;;;;;;;;;;;;;4991085;28;8339;-87
2022/10/31 10:17:26;;;;;;;;;;;;;;;;;;4975530;28;7173;-87
2022/10/31 10:19:52;;;;;;;;;;;;;;;;;;4990656;28;7132;-85
2022/10/31 10:22:17;;;;;;;;;;;;;;;;;;4973842;28;8570;-87
2022/10/31 10:24:43;;;;;;;;;;;;;;;;;;4991600;28;8417;-87
2022/10/31 10:27:08;;;;;;;;;;;;;;;;;;4990299;28;8579;-87
2022/10/31 10:29:47;;;;;;;;;;;;;;;;;;4989837;28;8310;-87
2022/10/31 10:32:19;;;;;;;;;;;;;;;;;;4974718;28;8512;-88
2022/10/31 10:34:49;;;;;;;;;;;;;;;;;;4975197;28;7057;-87
2022/10/31 10:37:26;;;;;;;;;;;;;;;;;;4974285;28;7184;-85
2022/10/31 10:40:00;;;;;;;;;;;;;;;;;;4975388;28;7199;-85
2022/10/31 10:48:12;;;;;;;;;;;;;;;;;;4975908;28;6820;-85
2022/10/31 10:50:44;;;;;;;;;;;;;;;;;;4961596;28;7260;-84
2022/10/31 10:53:31;;;;;;;;;;;;;;;;;;4964642;28;8550;-85
2022/10/31 10:56:03;;;;;;;;;;;;;;;;;;4986366;28;7256;-85
2022/10/31 10:58:36;;;;;;;;;;;;;;;;;;5012171;28;7213;-86
2022/10/31 11:01:10;;;;;;;;;;;;;;;;;;4997322;28;7045;-86
2022/10/31 11:03:36;;;;;;;;;;;;;;;;;;4960600;28;7163;-84
2022/10/31 11:06:01;;;;;;;;;;;;;;;;;;4959515;28;7243;-86
2022/10/31 11:08:31;;;;;;;;;;;;;;;;;;4972115;28;7351;-85
2022/10/31 11:11:08;;;;;;;;;;;;;;;;;;4970965;28;6928;-85
2022/10/31 11:13:35;;;;;;;;;;;;;;;;;;4972052;28;7566;-86
2022/10/31 11:16:08;;;;;;;;;;;;;;;;;;4974012;28;7218;-88
2022/10/31 11:18:39;;;;;;;;;;;;;;;;;;4972788;28;7056;-86
2022/10/31 11:21:05;;;;;;;;;;;;;;;;;;4976008;28;7081;-88
2022/10/31 11:23:32;;;;;;;;;;;;;;;;;;4974420;28;6854;-88
2022/10/31 11:26:03;;;;;;;;;;;;;;;;;;4977770;28;7383;-87
2022/10/31 11:28:30;;;;;;;;;;;;;;;;;;4978071;28;6846;-85
2022/10/31 11:30:58;;;;;;;;;;;;;;;;;;4977349;28;6887;-89
2022/10/31 11:33:26;;;;;;;;;;;;;;;;;;4974822;28;8453;-85
2022/10/31 11:35:53;;;;;;;;;;;;;;;;;;4977868;28;8448;-89
2022/10/31 11:38:22;;;;;;;;;;;;;;;;;;4972717;28;6951;-84
2022/10/31 11:41:07;;;;;;;;;;;;;;;;;;4955860;28;7705;-86
2022/10/31 11:43:33;;;;;;;;;;;;;;;;;;4954420;28;7132;-86
2022/10/31 11:45:59;;;;;;;;;;;;;;;;;;4954291;28;7424;-86
2022/10/31 11:48:25;;;;;;;;;;;;;;;;;;4954783;29;8450;-85
2022/10/31 11:50:58;;;;;;;;;;;;;;;;;;4954445;28;7367;-86
2022/10/31 11:53:32;;;;;;;;;;;;;;;;;;4954203;28;8732;-86
2022/10/31 11:56:04;;;;;;;;;;;;;;;;;;4954301;28;8429;-86
2022/10/31 11:58:30;;;;;;;;;;;;;;;;;;4954271;28;7615;-86
2022/10/31 12:00:57;;;;;;;;;;;;;;;;;;4956450;28;7098;-86
2022/10/31 12:03:22;;;;;;;;;;;;;;;;;;4969198;28;8492;-84
2022/10/31 12:06:00;;;;;;;;;;;;;;;;;;4973204;28;8407;-86
2022/10/31 12:08:29;;;;;;;;;;;;;;;;;;4975019;28;7202;-86
2022/10/31 12:11:10;;;;;;;;;;;;;;;;;;4976232;28;8415;-87
2022/10/31 12:13:50;;;;;;;;;;;;;;;;;;4992198;28;7420;-86
2022/10/31 12:16:21;;;;;;;;;;;;;;;;;;4986086;28;7046;-87
2022/10/31 12:18:59;;;;;;;;;;;;;;;;;;4977198;28;8592;-86
2022/10/31 12:21:47;;;;;;;;;;;;;;;;;;4977268;28;7070;-88
2022/10/31 12:24:16;;;;;;;;;;;;;;;;;;4984191;28;7060;-86
2022/10/31 12:27:00;;;;;;;;;;;;;;;;;;4984375;28;7244;-85
2022/10/31 12:29:26;;;;;;;;;;;;;;;;;;4985618;28;7234;-87
2022/10/31 12:35:12;;;;;;;;;;;;;;;;;;4985246;28;7046;-90
2022/10/31 12:38:32;;;;;;;;;;;;;;;;;;4982721;28;7046;-87
2022/10/31 12:44:29;;;;;;;;;;;;;;;;;;4982467;28;7478;-86
2022/10/31 12:47:13;;;;;;;;;;;;;;;;;;4965300;28;7071;-87
2022/10/31 12:50:11;;;;;;;;;;;;;;;;;;4982536;28;7266;-87
2022/10/31 12:52:43;;;;;;;;;;;;;;;;;;4948151;28;7058;-86
2022/10/31 12:55:33;;;;;;;;;;;;;;;;;;4949071;28;7127;-83
2022/10/31 12:58:09;;;;;;;;;;;;;;;;;;4947208;28;7046;-85
2022/10/31 13:00:42;;;;;;;;;;;;;;;;;;4961132;28;7080;-84
2022/10/31 13:03:27;;;;;;;;;;;;;;;;;;4960625;28;7069;-84
2022/10/31 13:05:59;;;;;;;;;;;;;;;;;;4945112;28;7054;-87
2022/10/31 13:08:59;;;;;;;;;;;;;;;;;;4961210;28;7141;-85
2022/10/31 13:11:45;;;;;;;;;;;;;;;;;;4904398;28;7100;-85
2022/10/31 13:14:20;;;;;;;;;;;;;;;;;;4891424;29;7048;-84
2022/10/31 13:16:48;;;;;;;;;;;;;;;;;;4852115;29;7297;-84
2022/10/31 13:19:39;;;;;;;;;;;;;;;;;;4849118;29;7179;-88
2022/10/31 13:22:35;;;;;;;;;;;;;;;;;;4865209;29;8455;-83
2022/10/31 13:25:13;;;;;;;;;;;;;;;;;;4848580;29;8394;-84
2022/10/31 13:27:59;;;;;;;;;;;;;;;;;;4860026;29;7064;-86
2022/10/31 13:30:38;;;;;;;;;;;;;;;;;;4845887;29;7090;-88
2022/10/31 13:33:23;;;;;;;;;;;;;;;;;;4865374;29;7127;-84
2022/10/31 13:35:48;;;;;;;;;;;;;;;;;;4868581;29;7071;-85
2022/10/31 13:38:20;;;;;;;;;;;;;;;;;;4884011;29;7068;-85
2022/10/31 13:40:52;;;;;;;;;;;;;;;;;;4882022;29;7055;-87
2022/10/31 13:43:23;;;;;;;;;;;;;;;;;;4885406;29;7875;-86
2022/10/31 13:45:53;;;;;;;;;;;;;;;;;;4885933;29;7261;-89
2022/10/31 13:48:34;;;;;;;;;;;;;;;;;;4870084;29;6864;-86
2022/10/31 13:51:06;;;;;;;;;;;;;;;;;;4893437;29;7115;-84
2022/10/31 13:53:36;;;;;;;;;;;;;;;;;;4889591;29;7063;-86
2022/10/31 13:59:20;;;;;;;;;;;;;;;;;;4904486;29;6833;-86
2022/10/31 14:01:48;;;;;;;;;;;;;;;;;;4911807;29;7386;-85
2022/10/31 14:04:17;;;;;;;;;;;;;;;;;;4943008;29;7052;-88
2022/10/31 14:06:57;;;;;;;;;;;;;;;;;;4942930;29;8342;-85
2022/10/31 14:09:29;;;;;;;;;;;;;;;;;;4942436;29;7019;-87
2022/10/31 14:18:27;;;;;;;;;;;;;;;;;;4959775;29;6734;-94
2022/10/31 14:20:53;;;;;;;;;;;;;;;;;;4943066;29;8350;-87
2022/10/31 14:23:25;;;;;;;;;;;;;;;;;;4941244;29;7130;-85
2022/10/31 14:25:50;;;;;;;;;;;;;;;;;;4940999;29;6857;-86
2022/10/31 14:28:21;;;;;;;;;;;;;;;;;;4938893;29;7099;-84
2022/10/31 14:30:54;;;;;;;;;;;;;;;;;;4938431;29;8444;-84
2022/10/31 14:33:22;;;;;;;;;;;;;;;;;;4940868;29;7203;-85
2022/10/31 14:36:07;;;;;;;;;;;;;;;;;;4940287;28;6985;-86
2022/10/31 14:38:32;;;;;;;;;;;;;;;;;;4941339;29;7052;-85
2022/10/31 14:41:11;;;;;;;;;;;;;;;;;;4940870;29;7178;-84
2022/10/31 14:43:46;;;;;;;;;;;;;;;;;;4936828;29;7234;-86
2022/10/31 14:46:50;;;;;;;;;;;;;;;;;;4936294;29;8722;-85
2022/10/31 14:49:34;;;;;;;;;;;;;;;;;;4958026;28;7368;-86
2022/10/31 14:51:59;;;;;;;;;;;;;;;;;;4958302;28;7148;-85
2022/10/31 14:54:30;;;;;;;;;;;;;;;;;;4958494;28;8437;-84
2022/10/31 14:57:03;;;;;;;;;;;;;;;;;;4958917;28;8465;-84
2022/10/31 14:59:33;;;;;;;;;;;;;;;;;;4958103;28;7183;-84
2022/10/31 15:02:10;;;;;;;;;;;;;;;;;;4958120;28;8463;-85
2022/10/31 15:04:37;;;;;;;;;;;;;;;;;;4956916;28;7081;-84
2022/10/31 15:07:02;;;;;;;;;;;;;;;;;;4973109;28;8995;-86
2022/10/31 15:09:29;;;;;;;;;;;;;;;;;;4958043;28;8719;-84
2022/10/31 15:11:55;;;;;;;;;;;;;;;;;;4958016;28;7441;-85
2022/10/31 15:14:23;;;;;;;;;;;;;;;;;;4958559;28;7128;-85
2022/10/31 15:16:49;;;;;;;;;;;;;;;;;;4958091;28;7061;-85
2022/10/31 15:19:20;;;;;;;;;;;;;;;;;;4948445;28;8548;-85
2022/10/31 15:21:46;;;;;;;;;;;;;;;;;;4919490;29;7132;-85
2022/10/31 15:24:15;;;;;;;;;;;;;;;;;;4921606;29;8738;-84
2022/10/31 15:26:45;;;;;;;;;;;;;;;;;;4937479;29;7095;-85
2022/10/31 15:29:15;;;;;;;;;;;;;;;;;;4938033;29;8483;-85
2022/10/31 15:31:50;;;;;;;;;;;;;;;;;;4938151;29;7153;-86
2022/10/31 15:34:22;;;;;;;;;;;;;;;;;;4936868;29;8609;-84
2022/10/31 15:36:50;;;;;;;;;;;;;;;;;;4937254;29;7811;-85
2022/10/31 15:39:16;;;;;;;;;;;;;;;;;;4932001;29;8717;-84
2022/10/31 15:41:42;;;;;;;;;;;;;;;;;;4933738;29;7285;-85
2022/10/31 15:44:17;;;;;;;;;;;;;;;;;;4918779;29;8703;-83
2022/10/31 15:46:43;;;;;;;;;;;;;;;;;;4933452;29;7504;-84
2022/10/31 15:49:24;;;;;;;;;;;;;;;;;;4934409;29;7088;-83
2022/10/31 15:51:50;;;;;;;;;;;;;;;;;;4933657;29;8425;-85
2022/10/31 15:54:15;;;;;;;;;;;;;;;;;;4934191;29;7334;-84
2022/10/31 15:56:43;;;;;;;;;;;;;;;;;;4971149;28;7067;-84
2022/10/31 15:59:19;;;;;;;;;;;;;;;;;;4955438;29;7071;-84
2022/10/31 16:01:56;;;;;;;;;;;;;;;;;;4955792;29;7087;-84
2022/10/31 16:04:23;;;;;;;;;;;;;;;;;;4957471;28;7130;-82
2022/10/31 16:07:07;;;;;;;;;;;;;;;;;;4962747;28;7080;-86
2022/10/31 16:09:32;;;;;;;;;;;;;;;;;;4971448;28;8353;-85
2022/10/31 16:11:59;;;;;;;;;;;;;;;;;;4954861;28;7076;-85
2022/10/31 16:14:27;;;;;;;;;;;;;;;;;;4978921;28;7117;-85
2022/10/31 16:16:56;;;;;;;;;;;;;;;;;;4972996;28;7073;-85
2022/10/31 16:19:21;;;;;;;;;;;;;;;;;;4974454;28;8485;-86
2022/10/31 16:21:52;;;;;;;;;;;;;;;;;;4990718;28;8608;-85
2022/10/31 16:24:23;;;;;;;;;;;;;;;;;;4990055;28;7076;-84
2022/10/31 16:26:50;;;;;;;;;;;;;;;;;;4956402;29;7295;-85
2022/10/31 16:29:27;;;;;;;;;;;;;;;;;;4955780;29;7104;-86
2022/10/31 16:31:56;;;;;;;;;;;;;;;;;;4956297;29;7244;-85
2022/10/31 16:34:30;;;;;;;;;;;;;;;;;;4958510;29;7202;-87
2022/10/31 16:39:46;;;;;;;;;;;;;;;;;;4983347;28;6998;-87
2022/10/31 16:42:17;;;;;;;;;;;;;;;;;;4980170;28;8328;-86
2022/10/31 16:47:33;;;;;;;;;;;;;;;;;;4975718;28;6872;-87
2022/10/31 16:50:11;;;;;;;;;;;;;;;;;;4960194;29;8282;-85
2022/10/31 16:52:38;;;;;;;;;;;;;;;;;;4945007;29;7205;-85
2022/10/31 16:55:07;;;;;;;;;;;;;;;;;;4947500;28;7035;-86
2022/10/31 17:01:24;;;;;;;;;;;;;;;;;;4867405;29;6928;-86
2022/10/31 17:04:18;;;;;;;;;;;;;;;;;;;;;
2022/10/31 17:10:13;;;;;;;;;;;;;;;;;;4831673;29;6825;-85
2022/10/31 17:12:42;;;;;;;;;;;;;;;;;;4822608;29;6998;-87
2022/10/31 17:15:19;;;;;;;;;;;;;;;;;;4798544;29;8438;-86
2022/10/31 17:21:17;;;;;;;;;;;;;;;;;;4790986;29;6791;-86
2022/10/31 17:23:46;;;;;;;;;;;;;;;;;;4797716;29;7043;-85
2022/10/31 17:26:22;;;;;;;;;;;;;;;;;;4812701;29;7248;-85
2022/10/31 17:29:00;;;;;;;;;;;;;;;;;;;;;
2022/10/31 17:31:49;;;;;;;;;;;;;;;;;;4852752;29;6931;-83
2022/10/31 17:34:43;;;;;;;;;;;;;;;;;;4854439;29;7102;-86
2022/10/31 17:37:10;;;;;;;;;;;;;;;;;;4868818;29;7230;-83
2022/10/31 17:39:36;;;;;;;;;;;;;;;;;;4923775;28;7057;-87
2022/10/31 17:42:10;;;;;;;;;;;;;;;;;;4968437;28;7093;-85
2022/10/31 17:44:36;;;;;;;;;;;;;;;;;;4966100;28;7057;-83
2022/10/31 17:47:08;;;;;;;;;;;;;;;;;;4964340;28;7166;-84
2022/10/31 17:49:56;;;;;;;;;;;;;;;;;;;;;
2022/10/31 17:52:25;;;;;;;;;;;;;;;;;;4985127;28;8322;-85
2022/10/31 17:54:54;;;;;;;;;;;;;;;;;;4984966;28;7308;-85
2022/10/31 17:57:23;;;;;;;;;;;;;;;;;;4983852;28;7248;-84
2022/10/31 17:59:55;;;;;;;;;;;;;;;;;;4982033;28;6843;-88
2022/10/31 18:02:27;;;;;;;;;;;;;;;;;;4980545;28;6977;-85